Mobile — WDD9649 — position and weather

sailwx.info

Track history (hours):
 
Tides and Currents Weather Stations Pressure Air Temp Water Temp Dewpoint Dewpoint Depression Visibility Wind Speed Wind Dir Waves Ship Positions

Mobile

Owner: Kirby Inland Marine, LP, Houston, TX. More information available from US FCC via Universal Licensing System and Coast Guard Vessel Documentation Center.

Last reported at 2018-Jan-20 17:56 UTC. Time now 2018-Jan-21 16:20 UTC.
Position N 30°23' W 086°55'.

Length 117 m; draft 2.7 m.

Type: . MMSI: 367314430.

Date/timePositionNaut miles runAvg speedWind from/ knotsBaromVisibWave heightAir tempDewpointWater temp
2018-Jan-20 17:56N 30°23' W 086°55'2 5.8
2018-Jan-20 17:30N 30°24' W 086°52'3 5.8
2018-Jan-20 17:00N 30°24' W 086°49'3 5.9
2018-Jan-20 16:30N 30°24' W 086°45'7 5.7
2018-Jan-20 15:20N 30°24' W 086°37'2 6.3
2018-Jan-20 15:00N 30°24' W 086°35'3 5.2
2018-Jan-20 14:30N 30°25' W 086°32'2 4.0
2018-Jan-20 14:00N 30°26' W 086°30'2 4.2
2018-Jan-20 13:30N 30°27' W 086°28'1 1.7
2018-Jan-20 13:00N 30°28' W 086°28'3 0.2
2018-Jan-19 20:12N 30°31' W 086°29'0 0.0
2018-Jan-19 19:51N 30°31' W 086°29'0 0.5
2018-Jan-19 19:30N 30°31' W 086°29'2 4.2
2018-Jan-19 19:00N 30°29' W 086°28'1 2.0
2018-Jan-19 18:29N 30°28' W 086°28'3 5.8
2018-Jan-19 18:00N 30°26' W 086°31'12 4.6
2018-Jan-19 15:24N 30°24' W 086°45'1 1.5
2018-Jan-19 14:59N 30°24' W 086°45'0 0.0
2018-Jan-19 14:29N 30°24' W 086°45'1 1.0
2018-Jan-19 14:00N 30°24' W 086°46'3 5.7
2018-Jan-19 13:30N 30°24' W 086°49'3 5.2
2018-Jan-19 13:00N 30°24' W 086°52'  
2018-Jan-12 08:54N 30°31' W 086°29'1 2.3
2018-Jan-12 08:30N 30°30' W 086°29'2 4.5
2018-Jan-12 08:00N 30°28' W 086°28'1 2.3
2018-Jan-12 07:30N 30°27' W 086°29'14 6.0
2018-Jan-12 05:13N 30°24' W 086°45'1 6.2
2018-Jan-12 05:00N 30°24' W 086°46'3 6.5
2018-Jan-12 04:30N 30°24' W 086°50'  
Track history (hours):
 
Tides and Currents Weather Stations Pressure Air Temp Water Temp Dewpoint Dewpoint Depression Visibility Wind Speed Wind Dir Waves Ship Positions

Mobile

Owner: Kirby Inland Marine, LP, Houston, TX. More information available from US FCC via Universal Licensing System and Coast Guard Vessel Documentation Center.

Last reported at 2018-Jan-20 17:56 UTC. Time now 2018-Jan-21 16:20 UTC.
Position N 30°23' W 086°55'.

Length 117 m; draft 2.7 m.

Type: . MMSI: 367314430.

Date/timePositionNaut miles runAvg speedWind from/ knotsBaromVisibWave heightAir tempDewpointWater temp
2018-Jan-20 17:56N 30°23' W 086°55'2 5.8
2018-Jan-20 17:30N 30°24' W 086°52'3 5.8
2018-Jan-20 17:00N 30°24' W 086°49'3 5.9
2018-Jan-20 16:30N 30°24' W 086°45'7 5.7
2018-Jan-20 15:20N 30°24' W 086°37'2 6.3
2018-Jan-20 15:00N 30°24' W 086°35'3 5.2
2018-Jan-20 14:30N 30°25' W 086°32'2 4.0
2018-Jan-20 14:00N 30°26' W 086°30'2 4.2
2018-Jan-20 13:30N 30°27' W 086°28'1 1.7
2018-Jan-20 13:00N 30°28' W 086°28'3 0.2
2018-Jan-19 20:12N 30°31' W 086°29'0 0.0
2018-Jan-19 19:51N 30°31' W 086°29'0 0.5
2018-Jan-19 19:30N 30°31' W 086°29'2 4.2
2018-Jan-19 19:00N 30°29' W 086°28'1 2.0
2018-Jan-19 18:29N 30°28' W 086°28'3 5.8
2018-Jan-19 18:00N 30°26' W 086°31'12 4.6
2018-Jan-19 15:24N 30°24' W 086°45'1 1.5
2018-Jan-19 14:59N 30°24' W 086°45'0 0.0
2018-Jan-19 14:29N 30°24' W 086°45'1 1.0
2018-Jan-19 14:00N 30°24' W 086°46'3 5.7
2018-Jan-19 13:30N 30°24' W 086°49'3 5.2
2018-Jan-19 13:00N 30°24' W 086°52'  
2018-Jan-12 08:54N 30°31' W 086°29'1 2.3
2018-Jan-12 08:30N 30°30' W 086°29'2 4.5
2018-Jan-12 08:00N 30°28' W 086°28'1 2.3
2018-Jan-12 07:30N 30°27' W 086°29'14 6.0
2018-Jan-12 05:13N 30°24' W 086°45'1 6.2
2018-Jan-12 05:00N 30°24' W 086°46'3 6.5
2018-Jan-12 04:30N 30°24' W 086°50'  

Dump ship's entire track history